Time;durP1;ratioP1;P1;durP2;ratioP2;P2;SDS_P1;SDS_P2;PMS_P1;PMS_P2;Temp;Humidity;BMP_temperature;BMP_pressure;BME280_temperature;BME280_humidity;BME280_pressure;Samples;Min_cycle;Max_cycle;Signal;HPM_P1;HPM_P2
2023/03/10 00:02:00;;;;;;;7.5;3.3;;;;;;;;;;;;;-73
2023/03/10 00:03:59;;;;;;;;;;;;;;;1.6;95.5957;98988.16;;;;-73
2023/03/10 00:08:58;;;;;;;;;;;;;;;1.6;95.85742;98982.77;;;;-72
2023/03/10 00:13:59;;;;;;;;;;;;;;;1.6;95.8877;98974.82;;;;-72
2023/03/10 00:18:59;;;;;;;;;;;;;;;1.61;95.87891;98975.87;;;;-72
2023/03/10 00:23:58;;;;;;;;;;;;;;;1.59;95.86426;98974.75;;;;-72
2023/03/10 00:28:58;;;;;;;;;;;;;;;1.6;96.15918;98970.41;;;;-73
2023/03/10 00:31:59;;;;;;;7;3.2;;;;;;;;;;;;;-72
2023/03/10 00:33:59;;;;;;;;;;;;;;;1.6;95.97559;98968.77;;;;-72
2023/03/10 00:38:59;;;;;;;;;;;;;;;1.61;95.98828;98961.4;;;;-72
2023/03/10 00:43:58;;;;;;;;;;;;;;;1.62;95.38672;98956.49;;;;-72
2023/03/10 00:48:58;;;;;;;;;;;;;;;1.64;95.93848;98971.11;;;;-72
2023/03/10 00:53:58;;;;;;;;;;;;;;;1.63;95.79785;98995.73;;;;-72
2023/03/10 00:58:59;;;;;;;;;;;;;;;1.64;95.42285;98985.55;;;;-72
2023/03/10 01:01:59;;;;;;;6.3;3;;;;;;;;;;;;;-72
2023/03/10 01:03:59;;;;;;;;;;;;;;;1.64;95.64746;98965.42;;;;-72
2023/03/10 01:08:58;;;;;;;;;;;;;;;1.65;95.57617;98956.73;;;;-72
2023/03/10 01:13:58;;;;;;;;;;;;;;;1.65;95.54395;98944.54;;;;-73
2023/03/10 01:18:58;;;;;;;;;;;;;;;1.65;96.03809;98941.52;;;;-73
2023/03/10 01:23:58;;;;;;;;;;;;;;;1.65;95.93164;98941.45;;;;-72
2023/03/10 01:28:58;;;;;;;;;;;;;;;1.63;95.49609;98938.31;;;;-72
2023/03/10 01:32:01;;;;;;;5.8;2.8;;;;;;;;;;;;;-71
2023/03/10 01:33:58;;;;;;;;;;;;;;;1.66;95.75098;98931.7;;;;-73
2023/03/10 01:38:59;;;;;;;;;;;;;;;1.65;96.0293;98927.08;;;;-71
2023/03/10 01:44:03;;;;;;;;;;;;;;;1.64;95.73535;98924.17;;;;-72
2023/03/10 01:48:59;;;;;;;;;;;;;;;1.63;95.69043;98915.94;;;;-73
2023/03/10 01:53:58;;;;;;;;;;;;;;;1.63;95.91699;98913.01;;;;-72
2023/03/10 01:58:58;;;;;;;;;;;;;;;1.63;95.89551;98910.05;;;;-73
2023/03/10 02:01:59;;;;;;;6.3;2.8;;;;;;;;;;;;;-72
2023/03/10 02:04:02;;;;;;;;;;;;;;;1.63;95.89551;98904.19;;;;-72
2023/03/10 02:09:00;;;;;;;;;;;;;;;1.63;96.13281;98892.31;;;;-72
2023/03/10 02:13:58;;;;;;;;;;;;;;;1.62;95.74219;98898.27;;;;-73
2023/03/10 02:18:58;;;;;;;;;;;;;;;1.62;96.21484;98893.13;;;;-72
2023/03/10 02:24:01;;;;;;;;;;;;;;;1.63;96.32715;98890.84;;;;-72
2023/03/10 02:28:59;;;;;;;;;;;;;;;1.62;95.99023;98889.45;;;;-73
2023/03/10 02:31:58;;;;;;;5.5;2.7;;;;;;;;;;;;;-73
2023/03/10 02:33:58;;;;;;;;;;;;;;;1.62;95.97949;98887.53;;;;-73
2023/03/10 02:38:58;;;;;;;;;;;;;;;1.62;96.64844;98879.07;;;;-72
2023/03/10 02:43:59;;;;;;;;;;;;;;;1.61;96.77539;98867.62;;;;-72
2023/03/10 02:49:01;;;;;;;;;;;;;;;1.62;96.48633;98876.14;;;;-73
2023/03/10 02:53:59;;;;;;;;;;;;;;;1.61;96.48438;98860.88;;;;-72
2023/03/10 02:59:00;;;;;;;;;;;;;;;1.61;96.3877;98857.11;;;;-72
2023/03/10 03:01:58;;;;;;;6;3;;;;;;;;;;;;;-72
2023/03/10 03:03:59;;;;;;;;;;;;;;;1.61;96.55957;98865.89;;;;-72
2023/03/10 03:08:58;;;;;;;;;;;;;;;1.6;96.90039;98870.73;;;;-73
2023/03/10 03:13:58;;;;;;;;;;;;;;;1.58;96.90723;98865.94;;;;-72
2023/03/10 03:19:02;;;;;;;;;;;;;;;1.59;96.72656;98861.52;;;;-72
2023/03/10 03:24:00;;;;;;;;;;;;;;;1.58;96.84473;98865.55;;;;-71
2023/03/10 03:28:58;;;;;;;;;;;;;;;1.57;96.53711;98861.99;;;;-73
2023/03/10 03:31:56;;;;;;;5.9;2.6;;;;;;;;;;;;;-74
2023/03/10 03:33:58;;;;;;;;;;;;;;;1.57;96.73145;98862.31;;;;-73
2023/03/10 03:38:58;;;;;;;;;;;;;;;1.55;96.82617;98863.41;;;;-72
2023/03/10 03:43:58;;;;;;;;;;;;;;;1.54;96.70508;98865.55;;;;-73
2023/03/10 03:48:58;;;;;;;;;;;;;;;1.53;96.55273;98858.95;;;;-72
2023/03/10 03:53:58;;;;;;;;;;;;;;;1.51;97.00098;98860.81;;;;-73
2023/03/10 03:58:58;;;;;;;;;;;;;;;1.5;96.99902;98872.66;;;;-73
2023/03/10 04:01:58;;;;;;;3.9;1.8;;;;;;;;;;;;;-72
2023/03/10 04:03:58;;;;;;;;;;;;;;;1.5;97.23438;98868.72;;;;-73
2023/03/10 04:09:00;;;;;;;;;;;;;;;1.48;97.35059;98874.1;;;;-72
2023/03/10 04:13:58;;;;;;;;;;;;;;;1.48;96.99512;98851.34;;;;-72
2023/03/10 04:18:58;;;;;;;;;;;;;;;1.48;97.16504;98846.94;;;;-72
2023/03/10 04:23:58;;;;;;;;;;;;;;;1.46;97.19336;98842.19;;;;-74
2023/03/10 04:28:59;;;;;;;;;;;;;;;1.44;97.58789;98830.43;;;;-72
2023/03/10 04:31:55;;;;;;;4.2;2;;;;;;;;;;;;;-73
2023/03/10 04:33:58;;;;;;;;;;;;;;;1.43;97.52148;98850;;;;-73
2023/03/10 04:38:58;;;;;;;;;;;;;;;1.43;97.27344;98867.72;;;;-73
2023/03/10 04:43:58;;;;;;;;;;;;;;;1.42;97.4541;98848.59;;;;-72
2023/03/10 04:48:58;;;;;;;;;;;;;;;1.41;97.625;98835.55;;;;-71
2023/03/10 04:53:59;;;;;;;;;;;;;;;1.41;97.5498;98841.5;;;;-73
2023/03/10 04:59:01;;;;;;;;;;;;;;;1.41;97.78418;98840.06;;;;-72
2023/03/10 05:01:55;;;;;;;4.1;1.8;;;;;;;;;;;;;-72
2023/03/10 05:03:58;;;;;;;;;;;;;;;1.4;97.72852;98827.22;;;;-72
2023/03/10 05:09:02;;;;;;;;;;;;;;;1.4;97.67676;98824.06;;;;-72
2023/03/10 05:13:58;;;;;;;;;;;;;;;1.41;97.5498;98824.66;;;;-72
2023/03/10 05:19:01;;;;;;;;;;;;;;;1.4;97.53711;98836.72;;;;-73
2023/03/10 05:23:58;;;;;;;;;;;;;;;1.39;97.83594;98834.17;;;;-72
2023/03/10 05:28:58;;;;;;;;;;;;;;;1.38;97.99316;98827.05;;;;-72
2023/03/10 05:31:54;;;;;;;4.1;2.1;;;;;;;;;;;;;-72
2023/03/10 05:33:58;;;;;;;;;;;;;;;1.41;97.58008;98825.92;;;;-72
2023/03/10 05:38:58;;;;;;;;;;;;;;;1.4;97.2998;98850.73;;;;-73
2023/03/10 05:43:58;;;;;;;;;;;;;;;1.38;97.40137;98849.87;;;;-73
2023/03/10 05:48:59;;;;;;;;;;;;;;;1.4;97.46973;98840.13;;;;-73
2023/03/10 05:53:58;;;;;;;;;;;;;;;1.39;97.34961;98847.02;;;;-73
2023/03/10 05:58:58;;;;;;;;;;;;;;;1.39;97.33008;98848.97;;;;-72
2023/03/10 06:01:54;;;;;;;5.2;2.2;;;;;;;;;;;;;-73
2023/03/10 06:03:58;;;;;;;;;;;;;;;1.39;97.44629;98855.86;;;;-72
2023/03/10 06:08:58;;;;;;;;;;;;;;;1.4;97.30859;98826.8;;;;-72
2023/03/10 06:13:58;;;;;;;;;;;;;;;1.39;97.51074;98817.06;;;;-73
2023/03/10 06:18:59;;;;;;;;;;;;;;;1.38;97.46777;98833;;;;-71
2023/03/10 06:23:58;;;;;;;;;;;;;;;1.39;97.59766;98832.61;;;;-73
2023/03/10 06:28:58;;;;;;;;;;;;;;;1.4;97.63184;98840.55;;;;-72
2023/03/10 06:31:53;;;;;;;4.8;2.4;;;;;;;;;;;;;-73
2023/03/10 06:34:00;;;;;;;;;;;;;;;1.39;97.75;98836.13;;;;-73
2023/03/10 06:38:58;;;;;;;;;;;;;;;1.39;97.8252;98844.09;;;;-73
2023/03/10 06:43:58;;;;;;;;;;;;;;;1.4;97.99805;98845.66;;;;-72
2023/03/10 06:48:58;;;;;;;;;;;;;;;1.4;98.04102;98835.73;;;;-72
2023/03/10 06:53:58;;;;;;;;;;;;;;;1.41;97.91602;98845.31;;;;-71
2023/03/10 06:58:58;;;;;;;;;;;;;;;1.42;97.84082;98848.89;;;;-71
2023/03/10 07:01:53;;;;;;;5.8;2.6;;;;;;;;;;;;;-72
2023/03/10 07:03:59;;;;;;;;;;;;;;;1.43;97.30762;98852.12;;;;-72
2023/03/10 07:09:00;;;;;;;;;;;;;;;1.47;97.72168;98860.82;;;;-73
2023/03/10 07:13:58;;;;;;;;;;;;;;;1.48;97.44531;98857.45;;;;-71
2023/03/10 07:18:58;;;;;;;;;;;;;;;1.5;97.95605;98863.34;;;;-72
2023/03/10 07:23:58;;;;;;;;;;;;;;;1.5;97.95605;98866.14;;;;-72
2023/03/10 07:28:58;;;;;;;;;;;;;;;1.5;98.48438;98869.53;;;;-72
2023/03/10 07:32:02;;;;;;;5.8;2.7;;;;;;;;;;;;;-73
2023/03/10 07:33:58;;;;;;;;;;;;;;;1.51;98.37988;98887.16;;;;-73
2023/03/10 07:38:58;;;;;;;;;;;;;;;1.52;98.16504;98888.3;;;;-71
2023/03/10 07:43:58;;;;;;;;;;;;;;;1.52;98.16699;98894.3;;;;-73
2023/03/10 07:48:59;;;;;;;;;;;;;;;1.52;98.37012;98882.61;;;;-73
2023/03/10 07:53:58;;;;;;;;;;;;;;;1.52;98.31836;98890.23;;;;-73
2023/03/10 07:58:58;;;;;;;;;;;;;;;1.52;98.03516;98895.4;;;;-72
2023/03/10 08:01:52;;;;;;;5.3;2.3;;;;;;;;;;;;;-74
2023/03/10 08:03:58;;;;;;;;;;;;;;;1.53;98.06152;98908.67;;;;-72
2023/03/10 08:08:58;;;;;;;;;;;;;;;1.54;98.32227;98918.5;;;;-73
2023/03/10 08:13:58;;;;;;;;;;;;;;;1.55;98.32227;98907.03;;;;-72
2023/03/10 08:18:58;;;;;;;;;;;;;;;1.56;98.68164;98910.35;;;;-73
2023/03/10 08:23:58;;;;;;;;;;;;;;;1.56;98.42285;98915.81;;;;-72
2023/03/10 08:28:58;;;;;;;;;;;;;;;1.57;98.71582;98911.05;;;;-73
2023/03/10 08:31:52;;;;;;;5;2.1;;;;;;;;;;;;;-71
2023/03/10 08:33:59;;;;;;;;;;;;;;;1.6;98.42285;98912.17;;;;-72
2023/03/10 08:38:59;;;;;;;;;;;;;;;1.63;98.50488;98915.52;;;;-72
2023/03/10 08:43:58;;;;;;;;;;;;;;;1.7;98.64844;98918.06;;;;-73
2023/03/10 08:48:58;;;;;;;;;;;;;;;1.75;98.4668;98913.22;;;;-73
2023/03/10 08:54:01;;;;;;;;;;;;;;;1.83;98.9043;98926.05;;;;-73
2023/03/10 08:58:59;;;;;;;;;;;;;;;1.87;99.13184;98937.3;;;;-73
2023/03/10 09:01:51;;;;;;;4.8;2.2;;;;;;;;;;;;;-72
2023/03/10 09:03:58;;;;;;;;;;;;;;;1.9;99.32129;98946.53;;;;-72
2023/03/10 09:08:58;;;;;;;;;;;;;;;1.89;99.28516;98940.53;;;;-72
2023/03/10 09:13:58;;;;;;;;;;;;;;;1.95;99.25684;98943.05;;;;-72
2023/03/10 09:18:59;;;;;;;;;;;;;;;1.96;99.30176;98951.35;;;;-73
2023/03/10 09:23:59;;;;;;;;;;;;;;;1.97;99.28223;98968.02;;;;-73
2023/03/10 09:28:58;;;;;;;;;;;;;;;1.97;99.47656;98963.77;;;;-72
2023/03/10 09:31:51;;;;;;;5.3;2.7;;;;;;;;;;;;;-72
2023/03/10 09:33:58;;;;;;;;;;;;;;;1.99;99.61035;98961.95;;;;-73
2023/03/10 09:38:58;;;;;;;;;;;;;;;1.98;99.2002;98959.6;;;;-73
2023/03/10 09:44:02;;;;;;;;;;;;;;;2.03;99.5127;98992.51;;;;-73
2023/03/10 09:49:05;;;;;;;;;;;;;;;2.04;99.24316;98993.71;;;;-72
2023/03/10 09:54:06;;;;;;;;;;;;;;;2.03;99.39258;98995.08;;;;-72
2023/03/10 09:59:00;;;;;;;;;;;;;;;2.02;99.03613;98994.97;;;;-72
2023/03/10 10:01:52;;;;;;;9;3.5;;;;;;;;;;;;;-72
2023/03/10 10:04:00;;;;;;;;;;;;;;;2.03;99.23047;99001.42;;;;-72
2023/03/10 10:08:59;;;;;;;;;;;;;;;2.04;99.06055;99014;;;;-74
2023/03/10 10:14:04;;;;;;;;;;;;;;;2.05;99.08398;99011.2;;;;-73
2023/03/10 10:19:01;;;;;;;;;;;;;;;2.06;99.00195;99030.22;;;;-73
2023/03/10 10:23:58;;;;;;;;;;;;;;;2.05;99.2998;99036.92;;;;-72
2023/03/10 10:29:05;;;;;;;;;;;;;;;2.05;99.00781;99045.87;;;;-73
2023/03/10 10:32:00;;;;;;;6.9;3.6;;;;;;;;;;;;;-75
2023/03/10 10:34:02;;;;;;;;;;;;;;;2.05;99.00977;99050.85;;;;-72
2023/03/10 10:39:01;;;;;;;;;;;;;;;2.05;98.95605;99046.62;;;;-73
2023/03/10 10:43:59;;;;;;;;;;;;;;;2.05;98.72949;99040.27;;;;-73
2023/03/10 10:49:03;;;;;;;;;;;;;;;2.03;99.11426;99040.58;;;;-73
2023/03/10 10:53:58;;;;;;;;;;;;;;;2.02;98.91602;99045.39;;;;-73
2023/03/10 10:59:08;;;;;;;;;;;;;;;2.01;99.02148;99050.39;;;;-72
2023/03/10 11:01:57;;;;;;;6.8;3.1;;;;;;;;;;;;;-74
2023/03/10 11:04:07;;;;;;;;;;;;;;;1.98;99.17871;99063.2;;;;-73
2023/03/10 11:09:05;;;;;;;;;;;;;;;1.96;99.02148;99068.56;;;;-73
2023/03/10 11:14:05;;;;;;;;;;;;;;;1.96;98.88184;99076.01;;;;-72
2023/03/10 11:19:07;;;;;;;;;;;;;;;1.96;99;99071.13;;;;-72
2023/03/10 11:24:02;;;;;;;;;;;;;;;1.99;98.75879;99066.75;;;;-74
2023/03/10 11:29:06;;;;;;;;;;;;;;;2;98.87012;99074.09;;;;-74
2023/03/10 11:31:53;;;;;;;6.9;3;;;;;;;;;;;;;-73
2023/03/10 11:34:01;;;;;;;;;;;;;;;2.02;99.00391;99077.81;;;;-72
2023/03/10 11:39:02;;;;;;;;;;;;;;;2.04;98.70605;99084.57;;;;-73
2023/03/10 11:44:02;;;;;;;;;;;;;;;2.05;98.81445;99077.28;;;;-72
2023/03/10 11:49:04;;;;;;;;;;;;;;;2.05;98.81836;99075.01;;;;-72
2023/03/10 11:53:59;;;;;;;;;;;;;;;2.06;98.81836;99069.13;;;;-73
2023/03/10 11:59:01;;;;;;;;;;;;;;;2.05;98.8291;99063.94;;;;-73
2023/03/10 12:01:51;;;;;;;11.6;4;;;;;;;;;;;;;-73
2023/03/10 12:04:02;;;;;;;;;;;;;;;2.05;99.03418;99066.22;;;;-72
2023/03/10 12:08:59;;;;;;;;;;;;;;;2.04;99.07324;99070.09;;;;-74
2023/03/10 12:14:00;;;;;;;;;;;;;;;2.09;98.88965;99074.25;;;;-73
2023/03/10 12:18:58;;;;;;;;;;;;;;;2.12;98.64746;99074.7;;;;-73
2023/03/10 12:23:59;;;;;;;;;;;;;;;2.12;98.44434;99081.58;;;;-73
2023/03/10 12:29:11;;;;;;;;;;;;;;;2.1;98.61328;99097.9;;;;-73
2023/03/10 12:31:51;;;;;;;10.6;4.5;;;;;;;;;;;;;-73
2023/03/10 12:34:08;;;;;;;;;;;;;;;2.09;98.97559;99107.07;;;;-73
2023/03/10 12:38:59;;;;;;;;;;;;;;;2.1;98.97949;99106.3;;;;-72
2023/03/10 12:44:02;;;;;;;;;;;;;;;2.14;98.88867;99115.8;;;;-72
2023/03/10 12:49:04;;;;;;;;;;;;;;;2.15;99.08984;99126.79;;;;-72
2023/03/10 12:54:01;;;;;;;;;;;;;;;2.17;99.18848;99149.46;;;;-72
2023/03/10 12:59:01;;;;;;;;;;;;;;;2.16;98.95996;99173.28;;;;-72
2023/03/10 13:01:48;;;;;;;10.4;4.4;;;;;;;;;;;;;-72
2023/03/10 13:04:01;;;;;;;;;;;;;;;2.12;99.14551;99173.71;;;;-73
2023/03/10 13:09:00;;;;;;;;;;;;;;;2.12;98.93848;99201.19;;;;-73
2023/03/10 13:14:01;;;;;;;;;;;;;;;2.09;98.96484;99215.32;;;;-73
2023/03/10 13:18:59;;;;;;;;;;;;;;;2.05;98.77344;99254.61;;;;-72
2023/03/10 13:23:58;;;;;;;;;;;;;;;2.02;98.76465;99276.88;;;;-72
2023/03/10 13:28:59;;;;;;;;;;;;;;;1.98;98.34668;99303.06;;;;-73
2023/03/10 13:31:57;;;;;;;9.1;4.4;;;;;;;;;;;;;-74
2023/03/10 13:33:59;;;;;;;;;;;;;;;1.9;98.4248;99302.61;;;;-74
2023/03/10 13:38:58;;;;;;;;;;;;;;;1.84;98.24023;99313.77;;;;-74
2023/03/10 13:43:58;;;;;;;;;;;;;;;1.73;98.47363;99341.09;;;;-73
2023/03/10 13:49:02;;;;;;;;;;;;;;;1.66;98.52148;99380.49;;;;-74
2023/03/10 13:54:02;;;;;;;;;;;;;;;1.54;98.5918;99424.3;;;;-73
2023/03/10 13:59:02;;;;;;;;;;;;;;;1.48;98.56641;99440.17;;;;-74
2023/03/10 14:01:52;;;;;;;6.5;2.4;;;;;;;;;;;;;-74
2023/03/10 14:04:01;;;;;;;;;;;;;;;1.46;98.37891;99472.5;;;;-74
2023/03/10 14:08:58;;;;;;;;;;;;;;;1.4;98.40723;99487.92;;;;-74
2023/03/10 14:13:59;;;;;;;;;;;;;;;1.36;98.37695;99520.91;;;;-73
2023/03/10 14:19:00;;;;;;;;;;;;;;;1.34;98.09277;99548.86;;;;-72
2023/03/10 14:23:58;;;;;;;;;;;;;;;1.32;98.08887;99581.65;;;;-72
2023/03/10 14:28:58;;;;;;;;;;;;;;;1.28;97.95996;99600.55;;;;-72
2023/03/10 14:31:46;;;;;;;4.4;1.8;;;;;;;;;;;;;-74
2023/03/10 14:33:58;;;;;;;;;;;;;;;1.24;97.86523;99603.63;;;;-72
2023/03/10 14:38:58;;;;;;;;;;;;;;;1.15;98.81348;99621.47;;;;-74
2023/03/10 14:43:58;;;;;;;;;;;;;;;1.15;98.37207;99639.32;;;;-73
2023/03/10 14:49:00;;;;;;;;;;;;;;;1.11;98.54688;99663.04;;;;-73
2023/03/10 14:53:58;;;;;;;;;;;;;;;1.13;98.15234;99671.59;;;;-74
2023/03/10 14:59:00;;;;;;;;;;;;;;;1.08;98.3252;99694.34;;;;-74
2023/03/10 15:01:46;;;;;;;3.6;1.6;;;;;;;;;;;;;-74
2023/03/10 15:03:58;;;;;;;;;;;;;;;1.06;98.2998;99705.36;;;;-74
2023/03/10 15:08:59;;;;;;;;;;;;;;;1.04;98.22852;99716.94;;;;-73
2023/03/10 15:13:58;;;;;;;;;;;;;;;1;98.15625;99721.93;;;;-74
2023/03/10 15:18:58;;;;;;;;;;;;;;;0.96;98.43848;99740.66;;;;-72
2023/03/10 15:23:58;;;;;;;;;;;;;;;0.95;98.25098;99762.5;;;;-71
2023/03/10 15:29:00;;;;;;;;;;;;;;;0.9;98.57422;99790.83;;;;-73
2023/03/10 15:31:45;;;;;;;3;1.2;;;;;;;;;;;;;-73
2023/03/10 15:33:58;;;;;;;;;;;;;;;0.84;98.99023;99793.03;;;;-73
2023/03/10 15:38:58;;;;;;;;;;;;;;;0.8;99.23926;99807;;;;-73
2023/03/10 15:44:01;;;;;;;;;;;;;;;0.82;99.06055;99808.8;;;;-73
2023/03/10 15:48:59;;;;;;;;;;;;;;;0.81;98.95117;99832.98;;;;-73
2023/03/10 15:53:57;;;;;;;;;;;;;;;0.82;98.81152;99862.44;;;;-74
2023/03/10 15:58:59;;;;;;;;;;;;;;;0.8;98.86133;99874.03;;;;-74
2023/03/10 16:01:45;;;;;;;0.8;0.3;;;;;;;;;;;;;-72
2023/03/10 16:04:00;;;;;;;;;;;;;;;0.81;98.71484;99901.99;;;;-73
2023/03/10 16:09:00;;;;;;;;;;;;;;;0.81;98.43457;99909.41;;;;-73
2023/03/10 16:13:58;;;;;;;;;;;;;;;0.81;98.80078;99916.83;;;;-73
2023/03/10 16:18:58;;;;;;;;;;;;;;;0.81;98.5;99939.47;;;;-73
2023/03/10 16:23:58;;;;;;;;;;;;;;;0.82;98.88672;99947.09;;;;-72
2023/03/10 16:29:02;;;;;;;;;;;;;;;0.84;98.63477;99963.96;;;;-72
2023/03/10 16:31:45;;;;;;;1.7;0.4;;;;;;;;;;;;;-72
2023/03/10 16:33:58;;;;;;;;;;;;;;;0.85;98.78516;99968.78;;;;-72
2023/03/10 16:39:00;;;;;;;;;;;;;;;0.87;98.93359;99990.79;;;;-74
2023/03/10 16:43:57;;;;;;;;;;;;;;;0.94;98.70117;99990.34;;;;-74
2023/03/10 16:48:59;;;;;;;;;;;;;;;0.99;98.24902;100011.5;;;;-72
2023/03/10 16:53:59;;;;;;;;;;;;;;;0.99;98.51758;100023.9;;;;-72
2023/03/10 16:58:58;;;;;;;;;;;;;;;0.97;98.55664;100033.7;;;;-72
2023/03/10 17:01:44;;;;;;;0.9;0.3;;;;;;;;;;;;;-72
2023/03/10 17:03:58;;;;;;;;;;;;;;;0.95;98.19727;100034.3;;;;-73
2023/03/10 17:08:58;;;;;;;;;;;;;;;0.89;98.78516;100044.8;;;;-72
2023/03/10 17:13:59;;;;;;;;;;;;;;;0.86;98.78125;100053;;;;-73
2023/03/10 17:18:58;;;;;;;;;;;;;;;0.83;98.74023;100066;;;;-73
2023/03/10 17:23:58;;;;;;;;;;;;;;;0.8;98.76465;100084.1;;;;-72
2023/03/10 17:28:58;;;;;;;;;;;;;;;0.76;99.29395;100102;;;;-73
2023/03/10 17:31:47;;;;;;;2.2;0.4;;;;;;;;;;;;;-73
2023/03/10 17:33:58;;;;;;;;;;;;;;;0.74;99.33203;100120.4;;;;-73
2023/03/10 17:39:00;;;;;;;;;;;;;;;0.72;99.78809;100138.8;;;;-74
2023/03/10 17:43:58;;;;;;;;;;;;;;;0.68;100;100145.4;;;;-74
2023/03/10 17:48:58;;;;;;;;;;;;;;;0.66;99.99023;100159.2;;;;-73
2023/03/10 17:53:59;;;;;;;;;;;;;;;0.64;100;100184.7;;;;-74
2023/03/10 17:58:59;;;;;;;;;;;;;;;0.6;100;100215.9;;;;-71
2023/03/10 18:01:44;;;;;;;2.7;0.4;;;;;;;;;;;;;-74
2023/03/10 18:03:58;;;;;;;;;;;;;;;0.58;100;100222.4;;;;-74
2023/03/10 18:08:58;;;;;;;;;;;;;;;0.56;100;100222.9;;;;-73
2023/03/10 18:13:58;;;;;;;;;;;;;;;0.58;100;100227;;;;-74
2023/03/10 18:18:59;;;;;;;;;;;;;;;0.57;99.95801;100241.2;;;;-72
2023/03/10 18:23:58;;;;;;;;;;;;;;;0.56;100;100262;;;;-73
2023/03/10 18:28:59;;;;;;;;;;;;;;;0.55;100;100273.7;;;;-73
2023/03/10 18:31:43;;;;;;;3.7;0.6;;;;;;;;;;;;;-74
2023/03/10 18:34:00;;;;;;;;;;;;;;;0.54;99.93066;100295.8;;;;-72
2023/03/10 18:38:58;;;;;;;;;;;;;;;0.51;99.77344;100288.7;;;;-73
2023/03/10 18:43:58;;;;;;;;;;;;;;;0.49;99.97363;100286.9;;;;-73
2023/03/10 18:48:58;;;;;;;;;;;;;;;0.47;99.77441;100287.3;;;;-73
2023/03/10 18:53:58;;;;;;;;;;;;;;;0.47;99.75293;100300.1;;;;-74
2023/03/10 18:58:57;;;;;;;;;;;;;;;0.48;99.54004;100308.8;;;;-72
2023/03/10 19:01:42;;;;;;;5.6;0.8;;;;;;;;;;;;;-73
2023/03/10 19:03:58;;;;;;;;;;;;;;;0.47;99.43066;100318;;;;-74
2023/03/10 19:08:58;;;;;;;;;;;;;;;0.47;99.39746;100338.8;;;;-73
2023/03/10 19:14:00;;;;;;;;;;;;;;;0.46;99.26855;100349.5;;;;-73
2023/03/10 19:18:58;;;;;;;;;;;;;;;0.46;99.17188;100362.7;;;;-74
2023/03/10 19:23:57;;;;;;;;;;;;;;;0.45;99.125;100383.6;;;;-73
2023/03/10 19:28:57;;;;;;;;;;;;;;;0.44;99.63867;100395;;;;-72
2023/03/10 19:31:42;;;;;;;2.3;0.5;;;;;;;;;;;;;-73
2023/03/10 19:33:57;;;;;;;;;;;;;;;0.45;99.74805;100408.1;;;;-74
2023/03/10 19:38:58;;;;;;;;;;;;;;;0.45;99.44727;100415.3;;;;-72
2023/03/10 19:43:58;;;;;;;;;;;;;;;0.44;99.23047;100426.3;;;;-73
2023/03/10 19:48:58;;;;;;;;;;;;;;;0.43;99.20703;100434.3;;;;-72
2023/03/10 19:54:01;;;;;;;;;;;;;;;0.43;99.07813;100443.2;;;;-73
2023/03/10 19:58:58;;;;;;;;;;;;;;;0.42;98.89063;100454.9;;;;-72
2023/03/10 20:01:42;;;;;;;2.4;0.5;;;;;;;;;;;;;-73
2023/03/10 20:03:59;;;;;;;;;;;;;;;0.42;98.93652;100461.8;;;;-72
2023/03/10 20:08:58;;;;;;;;;;;;;;;0.41;98.8584;100469.7;;;;-73
2023/03/10 20:13:58;;;;;;;;;;;;;;;0.41;98.81543;100485.7;;;;-71
2023/03/10 20:18:57;;;;;;;;;;;;;;;0.42;99.08691;100493.1;;;;-72
2023/03/10 20:23:58;;;;;;;;;;;;;;;0.42;98.9873;100493.8;;;;-73
2023/03/10 20:28:57;;;;;;;;;;;;;;;0.41;98.86719;100502.6;;;;-72
2023/03/10 20:31:40;;;;;;;5;0.7;;;;;;;;;;;;;-73
2023/03/10 20:33:58;;;;;;;;;;;;;;;0.4;98.65234;100500.2;;;;-72
2023/03/10 20:38:58;;;;;;;;;;;;;;;0.38;98.4873;100517.3;;;;-73
2023/03/10 20:43:57;;;;;;;;;;;;;;;0.39;98.79883;100529.3;;;;-72
2023/03/10 20:48:57;;;;;;;;;;;;;;;0.37;98.53711;100540.8;;;;-72
2023/03/10 20:53:58;;;;;;;;;;;;;;;0.38;98.5625;100559.9;;;;-74
2023/03/10 20:58:58;;;;;;;;;;;;;;;0.35;98.36035;100573.8;;;;-72
2023/03/10 21:01:41;;;;;;;2;0.5;;;;;;;;;;;;;-72
2023/03/10 21:03:57;;;;;;;;;;;;;;;0.34;98.26172;100572.3;;;;-71
2023/03/10 21:09:00;;;;;;;;;;;;;;;0.35;98.19922;100578.9;;;;-72
2023/03/10 21:13:58;;;;;;;;;;;;;;;0.33;98.2793;100582.1;;;;-72
2023/03/10 21:18:57;;;;;;;;;;;;;;;0.31;98.32031;100589.4;;;;-73
2023/03/10 21:23:57;;;;;;;;;;;;;;;0.32;98.42969;100600.5;;;;-73
2023/03/10 21:28:58;;;;;;;;;;;;;;;0.28;98.25781;100607.5;;;;-73
2023/03/10 21:31:39;;;;;;;2.4;0.8;;;;;;;;;;;;;-72
2023/03/10 21:33:58;;;;;;;;;;;;;;;0.23;98.24805;100615.6;;;;-72
2023/03/10 21:38:58;;;;;;;;;;;;;;;0.21;98.125;100625.4;;;;-73
2023/03/10 21:43:59;;;;;;;;;;;;;;;0.2;98.01367;100633;;;;-73
2023/03/10 21:48:57;;;;;;;;;;;;;;;0.16;98.00586;100640.4;;;;-73
2023/03/10 21:53:58;;;;;;;;;;;;;;;0.13;98.06348;100654.4;;;;-74
2023/03/10 21:58:58;;;;;;;;;;;;;;;0.11;98.08105;100666.6;;;;-72
2023/03/10 22:01:38;;;;;;;3.6;0.5;;;;;;;;;;;;;-73
2023/03/10 22:03:58;;;;;;;;;;;;;;;0.12;97.78223;100676.4;;;;-72
2023/03/10 22:08:57;;;;;;;;;;;;;;;0.12;97.76074;100680.8;;;;-72
2023/03/10 22:13:58;;;;;;;;;;;;;;;0.13;97.93262;100687.9;;;;-72
2023/03/10 22:18:57;;;;;;;;;;;;;;;0.14;97.75391;100695;;;;-72
2023/03/10 22:23:58;;;;;;;;;;;;;;;0.15;97.69434;100701.6;;;;-72
2023/03/10 22:29:00;;;;;;;;;;;;;;;0.13;97.72168;100712.7;;;;-72
2023/03/10 22:31:38;;;;;;;1;0.4;;;;;;;;;;;;;-73
2023/03/10 22:33:57;;;;;;;;;;;;;;;0.16;97.61035;100714.2;;;;-73
2023/03/10 22:38:57;;;;;;;;;;;;;;;0.17;97.4707;100720.1;;;;-73
2023/03/10 22:43:58;;;;;;;;;;;;;;;0.15;97.72656;100719.5;;;;-73
2023/03/10 22:49:01;;;;;;;;;;;;;;;0.16;97.55371;100727.1;;;;-72
2023/03/10 22:53:57;;;;;;;;;;;;;;;0.15;97.44434;100726.4;;;;-73
2023/03/10 23:01:37;;;;;;;3.9;0.5;;;;;;;;;;;;;-73
2023/03/10 23:02:09;;;;;;;;;;;;;;;0.12;97.50293;100731.3;;;;-72
2023/03/10 23:07:07;;;;;;;;;;;;;;;0.09;97.49707;100736.9;;;;-73
2023/03/10 23:12:07;;;;;;;;;;;;;;;0.09;97.43262;100743.8;;;;-72
2023/03/10 23:17:07;;;;;;;;;;;;;;;0.06;97.51172;100758.9;;;;-71
2023/03/10 23:22:09;;;;;;;;;;;;;;;0.06;97.45801;100762.3;;;;-73
2023/03/10 23:27:07;;;;;;;;;;;;;;;0.07;97.29883;100761.3;;;;-72
2023/03/10 23:31:36;;;;;;;1.2;0.4;;;;;;;;;;;;;-72
2023/03/10 23:32:08;;;;;;;;;;;;;;;0.07;97.25391;100771.3;;;;-74
2023/03/10 23:37:07;;;;;;;;;;;;;;;0.08;97.32324;100783.3;;;;-72
2023/03/10 23:42:08;;;;;;;;;;;;;;;0.07;97.21094;100783.9;;;;-73
2023/03/10 23:47:07;;;;;;;;;;;;;;;0.07;97.23242;100787.4;;;;-73
2023/03/10 23:52:07;;;;;;;;;;;;;;;0.07;97.14648;100789.4;;;;-73
2023/03/10 23:57:07;;;;;;;;;;;;;;;0.06;97.16797;100793.6;;;;-73
